Time;durP1;ratioP1;P1;durP2;ratioP2;P2;SDS_P1;SDS_P2;PMS_P1;PMS_P2;Temp;Humidity;BMP_temperature;BMP_pressure;BME280_temperature;BME280_humidity;BME280_pressure;Samples;Min_cycle;Max_cycle;Signal;HPM_P1;HPM_P2
2022/03/14 00:01:17;;;;;;;9.77;2.00;;;21.70;81.30;;;;;;5069624;28;20116;-68
2022/03/14 00:03:59;;;;;;;7.10;2.00;;;21.70;81.80;;;;;;5075995;28;20053;-68
2022/03/14 00:06:26;;;;;;;8.57;1.80;;;21.70;80.90;;;;;;5043629;28;20111;-68
2022/03/14 00:09:06;;;;;;;30.55;3.60;;;21.70;80.90;;;;;;5066557;28;20090;-68
2022/03/14 00:11:35;;;;;;;16.35;1.98;;;21.70;81.80;;;;;;5065346;28;20102;-68
2022/03/14 00:14:06;;;;;;;16.23;1.80;;;21.70;80.90;;;;;;5069804;28;20037;-68
2022/03/14 00:16:41;;;;;;;7.93;3.17;;;21.70;80.10;;;;;;5049765;28;20025;-68
2022/03/14 00:19:09;;;;;;;14.52;3.13;;;21.60;80.20;;;;;;5066341;28;20495;-68
2022/03/14 00:21:38;;;;;;;9.88;2.20;;;21.70;80.20;;;;;;5068403;28;20036;-68
2022/03/14 00:24:06;;;;;;;22.83;2.40;;;21.60;79.90;;;;;;5049887;28;20024;-68
2022/03/14 00:26:34;;;;;;;7.45;1.95;;;21.60;80.10;;;;;;5052679;28;20524;-68
2022/03/14 00:29:03;;;;;;;9.70;2.30;;;21.60;80.10;;;;;;5044671;28;20441;-68
2022/03/14 00:31:30;;;;;;;9.82;2.08;;;21.70;81.10;;;;;;5069681;28;20411;-67
2022/03/14 00:33:57;;;;;;;6.88;1.90;;;21.70;81.50;;;;;;5064757;28;20483;-68
2022/03/14 00:36:25;;;;;;;6.00;1.70;;;21.70;81.30;;;;;;5068661;28;20423;-67
2022/03/14 00:38:53;;;;;;;47.65;3.92;;;21.70;81.40;;;;;;5034773;28;20540;-67
2022/03/14 00:41:20;;;;;;;14.00;2.22;;;21.70;81.40;;;;;;5069684;28;20040;-67
2022/03/14 00:43:47;;;;;;;10.82;1.77;;;21.70;81.30;;;;;;5069309;28;20513;-68
2022/03/14 00:46:16;;;;;;;7.25;1.50;;;21.70;81.60;;;;;;5063632;28;20041;-68
2022/03/14 00:48:44;;;;;;;10.25;2.20;;;21.60;81.10;;;;;;5069239;28;20182;-67
2022/03/14 00:51:12;;;;;;;11.07;1.90;;;21.60;81.40;;;;;;5051257;28;20040;-68
2022/03/14 00:53:39;;;;;;;15.55;2.83;;;21.60;82.20;;;;;;5050837;28;20497;-67
2022/03/14 00:56:06;;;;;;;9.18;1.83;;;21.70;82.80;;;;;;5069715;28;20052;-68
2022/03/14 00:58:34;;;;;;;25.48;2.53;;;21.70;82.20;;;;;;5067309;28;20085;-68
2022/03/14 01:01:02;;;;;;;7.57;1.63;;;21.70;82.30;;;;;;5051060;28;20028;-67
2022/03/14 01:03:29;;;;;;;4.05;1.40;;;21.80;81.80;;;;;;5070439;28;20124;-67
2022/03/14 01:05:56;;;;;;;8.82;1.50;;;21.80;81.60;;;;;;5066996;28;20486;-67
2022/03/14 01:08:23;;;;;;;6.68;1.38;;;21.80;81.50;;;;;;5069313;28;20433;-68
2022/03/14 01:10:51;;;;;;;7.10;1.30;;;21.90;82.00;;;;;;5052131;28;20465;-68
2022/03/14 01:13:18;;;;;;;4.10;1.45;;;21.90;81.70;;;;;;5052722;28;20033;-67
2022/03/14 01:15:46;;;;;;;10.18;1.77;;;22.00;81.30;;;;;;5067835;28;20094;-68
2022/03/14 01:18:14;;;;;;;7.30;1.58;;;22.00;80.50;;;;;;5050848;28;20048;-67
2022/03/14 01:20:41;;;;;;;6.50;1.23;;;22.00;80.80;;;;;;5065533;28;20048;-68
2022/03/14 01:23:09;;;;;;;30.75;3.10;;;22.00;80.90;;;;;;5066822;28;20033;-68
2022/03/14 01:25:37;;;;;;;36.75;2.85;;;21.90;80.80;;;;;;5066398;28;20040;-68
2022/03/14 01:28:04;;;;;;;6.70;1.25;;;21.90;81.10;;;;;;5052071;28;20111;-68
2022/03/14 01:30:32;;;;;;;1.60;0.85;;;21.90;81.70;;;;;;5068542;28;20112;-68
2022/03/14 01:33:00;;;;;;;4.85;1.20;;;21.90;81.10;;;;;;5067744;28;20163;-69
2022/03/14 01:35:27;;;;;;;7.30;1.35;;;21.90;81.60;;;;;;5069273;28;20035;-69
2022/03/14 01:37:55;;;;;;;3.58;1.30;;;21.80;81.10;;;;;;5058754;28;20102;-68
2022/03/14 01:40:23;;;;;;;2.35;0.90;;;21.80;82.10;;;;;;5066347;28;20417;-68
2022/03/14 01:42:50;;;;;;;3.03;1.13;;;21.80;81.50;;;;;;5069321;28;20064;-68
2022/03/14 01:45:18;;;;;;;5.97;1.50;;;21.80;81.60;;;;;;5051476;28;20078;-68
2022/03/14 01:47:45;;;;;;;6.43;1.40;;;21.80;82.20;;;;;;5069322;28;20033;-68
2022/03/14 01:50:13;;;;;;;3.92;1.25;;;21.80;81.30;;;;;;5063574;28;20029;-68
2022/03/14 01:52:41;;;;;;;9.05;1.55;;;21.80;82.20;;;;;;5065398;28;20032;-68
2022/03/14 01:55:09;;;;;;;6.40;1.55;;;21.80;82.60;;;;;;5059926;28;20045;-68
2022/03/14 01:57:36;;;;;;;4.82;1.75;;;21.80;81.70;;;;;;5046260;28;20133;-67
2022/03/14 02:00:08;;;;;;;29.65;3.38;;;21.80;83.00;;;;;;5076107;28;20049;-68
2022/03/14 02:02:35;;;;;;;12.88;1.92;;;21.80;83.40;;;;;;5068958;28;20037;-68
2022/03/14 02:05:03;;;;;;;3.17;1.17;;;21.70;81.90;;;;;;5067405;28;20045;-67
2022/03/14 02:07:30;;;;;;;7.18;1.50;;;21.50;81.90;;;;;;5072581;28;20024;-68
2022/03/14 02:09:58;;;;;;;8.38;1.45;;;21.50;82.20;;;;;;5044023;28;20033;-67
2022/03/14 02:12:26;;;;;;;6.43;1.38;;;21.50;82.20;;;;;;5068327;28;20040;-68
2022/03/14 02:14:53;;;;;;;6.75;1.77;;;21.50;82.40;;;;;;5068074;28;20083;-68
2022/03/14 02:17:20;;;;;;;4.53;1.15;;;21.40;83.40;;;;;;5051947;28;20498;-68
2022/03/14 02:19:48;;;;;;;21.13;3.10;;;21.30;83.20;;;;;;5052760;28;20175;-68
2022/03/14 02:22:15;;;;;;;10.38;1.65;;;21.30;83.40;;;;;;5035484;28;20029;-67
2022/03/14 02:24:43;;;;;;;3.83;1.10;;;21.30;83.70;;;;;;5064311;28;20479;-68
2022/03/14 02:27:11;;;;;;;8.60;1.80;;;21.20;84.50;;;;;;5067578;28;20055;-68
2022/03/14 02:29:39;;;;;;;3.67;1.38;;;21.10;85.10;;;;;;5037751;28;20037;-68
2022/03/14 02:32:07;;;;;;;5.15;1.10;;;21.10;86.90;;;;;;5065924;28;20390;-68
2022/03/14 02:34:35;;;;;;;8.45;1.90;;;21.00;87.70;;;;;;5054803;28;20043;-68
2022/03/14 02:37:04;;;;;;;4.40;1.42;;;21.00;88.20;;;;;;5070084;28;20048;-68
2022/03/14 02:39:32;;;;;;;4.28;1.52;;;20.90;88.80;;;;;;5045849;28;20079;-68
2022/03/14 02:42:03;;;;;;;6.90;1.80;;;20.90;89.30;;;;;;5053996;28;20499;-68
2022/03/14 02:44:31;;;;;;;4.10;1.60;;;20.90;89.20;;;;;;5051926;28;20033;-68
2022/03/14 02:46:58;;;;;;;7.10;1.60;;;20.90;89.70;;;;;;5068367;28;20453;-68
2022/03/14 02:49:27;;;;;;;6.68;1.48;;;20.80;90.10;;;;;;5053598;28;20065;-68
2022/03/14 02:51:54;;;;;;;10.60;1.58;;;20.70;90.30;;;;;;5072280;28;20529;-68
2022/03/14 02:54:21;;;;;;;8.50;1.55;;;20.60;91.10;;;;;;5071742;28;20478;-67
2022/03/14 02:56:48;;;;;;;5.65;1.77;;;20.40;92.00;;;;;;5071373;28;20372;-67
2022/03/14 02:59:16;;;;;;;8.60;1.73;;;20.20;92.50;;;;;;5068713;28;20124;-68
2022/03/14 03:01:43;;;;;;;6.38;1.48;;;20.10;92.60;;;;;;5054002;28;20040;-67
2022/03/14 03:04:10;;;;;;;6.93;1.90;;;19.80;92.60;;;;;;5053672;28;20090;-68
2022/03/14 03:06:38;;;;;;;6.32;1.88;;;19.70;93.00;;;;;;5070776;28;20036;-68
2022/03/14 03:09:05;;;;;;;6.18;1.73;;;19.50;93.20;;;;;;5054295;28;20029;-68
2022/03/14 03:11:32;;;;;;;8.90;2.05;;;19.50;93.60;;;;;;5071309;28;20437;-68
2022/03/14 03:14:03;;;;;;;25.52;2.97;;;19.40;93.60;;;;;;5053895;28;20041;-67
2022/03/14 03:16:34;;;;;;;12.20;2.00;;;19.30;94.00;;;;;;5051421;28;20048;-66
2022/03/14 03:19:01;;;;;;;7.00;2.03;;;19.30;94.50;;;;;;5070988;28;20040;-67
2022/03/14 03:21:28;;;;;;;13.73;2.58;;;19.40;95.00;;;;;;5052944;28;20029;-68
2022/03/14 03:23:55;;;;;;;22.23;3.47;;;19.40;95.10;;;;;;5053867;28;20032;-69
2022/03/14 03:26:22;;;;;;;8.98;2.70;;;19.40;95.30;;;;;;5048779;28;20024;-68
2022/03/14 03:28:50;;;;;;;13.48;2.63;;;19.50;95.50;;;;;;5035864;28;20041;-68
2022/03/14 03:31:18;;;;;;;11.32;1.88;;;19.50;95.60;;;;;;5048803;28;20043;-67
2022/03/14 03:33:46;;;;;;;7.55;1.35;;;19.40;95.40;;;;;;5069522;28;20044;-69
2022/03/14 03:36:13;;;;;;;9.45;2.10;;;19.40;95.50;;;;;;5065087;28;20029;-68
2022/03/14 03:38:41;;;;;;;6.97;1.75;;;19.40;95.40;;;;;;5071714;28;20164;-70
2022/03/14 03:41:08;;;;;;;12.98;2.35;;;19.40;95.70;;;;;;5067394;28;20414;-68
2022/03/14 03:43:35;;;;;;;8.80;1.88;;;19.40;95.80;;;;;;5071198;28;20044;-68
2022/03/14 03:46:02;;;;;;;8.85;1.60;;;19.40;95.70;;;;;;5071847;28;20437;-69
2022/03/14 03:48:29;;;;;;;10.77;2.03;;;19.50;95.90;;;;;;5071612;28;20443;-69
2022/03/14 03:50:57;;;;;;;9.85;2.10;;;19.50;96.00;;;;;;5071528;28;20041;-69
2022/03/14 03:53:24;;;;;;;5.78;1.63;;;19.60;96.00;;;;;;5053240;28;20037;-69
2022/03/14 03:55:51;;;;;;;7.15;1.60;;;19.60;96.10;;;;;;5053498;28;20056;-69
2022/03/14 03:58:18;;;;;;;10.60;2.00;;;19.60;96.10;;;;;;5053085;28;20045;-69
2022/03/14 04:00:45;;;;;;;5.53;1.60;;;19.70;96.30;;;;;;5068788;28;20056;-69
2022/03/14 04:03:12;;;;;;;5.22;1.40;;;19.70;96.40;;;;;;5069531;28;20039;-69
2022/03/14 04:05:41;;;;;;;10.40;2.00;;;19.80;96.30;;;;;;5071405;28;20164;-69
2022/03/14 04:08:11;;;;;;;5.60;1.60;;;19.80;96.40;;;;;;5052797;28;20513;-69
2022/03/14 04:10:39;;;;;;;5.47;1.80;;;19.90;96.50;;;;;;5069225;28;20049;-69
2022/03/14 04:13:06;;;;;;;11.40;2.35;;;19.90;96.50;;;;;;5071135;28;20047;-69
2022/03/14 04:15:46;;;;;;;11.40;2.25;;;19.90;96.40;;;;;;5044309;28;20458;-68
2022/03/14 04:18:17;;;;;;;6.18;1.80;;;20.00;96.50;;;;;;5061796;28;20049;-68
2022/03/14 04:20:44;;;;;;;7.18;1.60;;;20.10;96.70;;;;;;5070857;28;20037;-69
2022/03/14 04:23:11;;;;;;;8.73;2.00;;;20.10;96.70;;;;;;5070007;28;20134;-69
2022/03/14 04:25:39;;;;;;;12.65;1.60;;;20.10;96.70;;;;;;5070993;28;20141;-69
2022/03/14 04:28:06;;;;;;;8.20;1.95;;;20.10;96.80;;;;;;5056796;28;20024;-69
2022/03/14 04:30:33;;;;;;;7.50;1.70;;;20.20;96.80;;;;;;5068863;28;20032;-68
2022/03/14 04:33:00;;;;;;;5.47;1.60;;;20.20;96.80;;;;;;5069522;28;20045;-69
2022/03/14 04:35:28;;;;;;;12.38;2.00;;;20.30;96.90;;;;;;5070705;28;20068;-68
2022/03/14 04:37:55;;;;;;;12.40;2.30;;;20.20;96.90;;;;;;5051827;28;20033;-69
2022/03/14 04:40:22;;;;;;;14.98;2.20;;;20.20;96.90;;;;;;5062287;28;20083;-68
2022/03/14 04:42:49;;;;;;;12.45;2.28;;;20.30;97.00;;;;;;5066754;28;20025;-68
2022/03/14 04:45:17;;;;;;;10.82;2.13;;;20.30;96.90;;;;;;5052303;28;20032;-68
2022/03/14 04:47:44;;;;;;;8.38;1.95;;;20.30;96.80;;;;;;5052360;28;20031;-68
2022/03/14 04:50:11;;;;;;;11.25;2.15;;;20.20;96.50;;;;;;5069701;28;20032;-68
2022/03/14 04:52:38;;;;;;;13.50;2.15;;;20.30;96.50;;;;;;5067118;28;20478;-69
2022/03/14 04:55:06;;;;;;;21.90;3.55;;;20.30;96.50;;;;;;5066842;28;20055;-68
2022/03/14 04:57:33;;;;;;;8.65;2.42;;;20.40;96.60;;;;;;5066377;28;20051;-68
2022/03/14 05:00:00;;;;;;;12.55;2.35;;;20.40;96.50;;;;;;5068907;28;20045;-68
2022/03/14 05:02:27;;;;;;;12.00;2.85;;;20.40;96.30;;;;;;5061991;28;20021;-68
2022/03/14 05:04:55;;;;;;;11.75;2.10;;;20.40;96.00;;;;;;5070123;28;20113;-68
2022/03/14 05:07:22;;;;;;;14.43;3.00;;;20.40;96.10;;;;;;5070199;28;20046;-68
2022/03/14 05:09:49;;;;;;;9.40;1.98;;;20.50;96.20;;;;;;5049125;28;20400;-68
2022/03/14 05:12:16;;;;;;;11.25;2.10;;;20.40;95.60;;;;;;5062102;28;20044;-68
2022/03/14 05:14:44;;;;;;;7.95;1.75;;;20.40;95.70;;;;;;5032165;28;20105;-68
2022/03/14 05:17:11;;;;;;;12.48;2.20;;;20.40;95.30;;;;;;5068152;28;20037;-68
2022/03/14 05:19:38;;;;;;;9.65;2.15;;;20.40;95.00;;;;;;5047758;28;20072;-68
2022/03/14 05:22:06;;;;;;;11.68;2.50;;;20.50;95.40;;;;;;5069082;28;20035;-68
2022/03/14 05:24:33;;;;;;;7.30;2.10;;;20.50;95.60;;;;;;5038459;28;20071;-68
2022/03/14 05:27:00;;;;;;;7.65;1.88;;;20.50;95.60;;;;;;5068827;28;20037;-69
2022/03/14 05:29:27;;;;;;;11.35;2.72;;;20.60;95.60;;;;;;5066100;28;20040;-68
2022/03/14 05:31:54;;;;;;;9.50;2.35;;;20.60;95.30;;;;;;5063761;28;20318;-68
2022/03/14 05:34:22;;;;;;;15.85;3.00;;;20.70;94.50;;;;;;5068607;28;20098;-68
2022/03/14 05:36:49;;;;;;;8.88;2.38;;;20.70;95.10;;;;;;5050679;28;20060;-68
2022/03/14 05:39:16;;;;;;;8.55;2.30;;;20.70;94.40;;;;;;5068180;28;20048;-68
2022/03/14 05:41:43;;;;;;;14.18;2.13;;;20.70;94.60;;;;;;5049607;28;20484;-68
2022/03/14 05:44:10;;;;;;;6.10;1.38;;;20.60;93.70;;;;;;5067539;28;20422;-68
2022/03/14 05:46:37;;;;;;;7.03;1.60;;;20.60;92.20;;;;;;5066243;28;20129;-67
2022/03/14 05:49:05;;;;;;;9.73;1.80;;;20.50;92.10;;;;;;5066779;28;20098;-64
2022/03/14 05:51:36;;;;;;;8.88;1.95;;;20.60;92.30;;;;;;5049232;28;20060;-65
2022/03/14 05:54:04;;;;;;;7.75;1.58;;;20.60;92.30;;;;;;5068362;28;20036;-64
2022/03/14 05:56:31;;;;;;;10.35;1.60;;;20.60;90.50;;;;;;5059852;28;20041;-64
2022/03/14 05:58:58;;;;;;;9.10;1.40;;;20.70;91.10;;;;;;5042458;28;20033;-64
2022/03/14 06:01:26;;;;;;;9.13;1.75;;;20.70;90.00;;;;;;5045712;28;20557;-65
2022/03/14 06:03:53;;;;;;;8.43;1.77;;;20.80;90.50;;;;;;5065630;28;20028;-64
2022/03/14 06:06:20;;;;;;;8.43;2.00;;;20.80;90.70;;;;;;5047354;28;20042;-65
2022/03/14 06:08:47;;;;;;;6.93;1.30;;;20.80;90.20;;;;;;5064770;28;20040;-65
2022/03/14 06:11:15;;;;;;;6.20;1.55;;;20.80;89.40;;;;;;5066011;28;20059;-65
2022/03/14 06:13:43;;;;;;;6.30;1.63;;;20.80;89.70;;;;;;5062658;28;20113;-65
2022/03/14 06:16:10;;;;;;;6.22;1.65;;;20.80;88.00;;;;;;5048336;28;20033;-65
2022/03/14 06:18:37;;;;;;;9.45;2.13;;;20.80;89.40;;;;;;5045386;28;20080;-65
2022/03/14 06:21:04;;;;;;;9.35;1.77;;;20.80;89.70;;;;;;5065343;28;20025;-66
2022/03/14 06:23:32;;;;;;;10.05;1.50;;;20.80;89.40;;;;;;5057494;28;20414;-66
2022/03/14 06:25:59;;;;;;;6.00;1.58;;;20.80;88.70;;;;;;5045834;28;20036;-67
2022/03/14 06:28:26;;;;;;;8.02;1.42;;;20.80;88.90;;;;;;5045507;28;20024;-67
2022/03/14 06:30:53;;;;;;;7.40;2.00;;;20.80;89.80;;;;;;5039023;28;20037;-67
2022/03/14 06:33:21;;;;;;;6.38;1.30;;;20.90;89.70;;;;;;5061306;28;20383;-67
2022/03/14 06:35:48;;;;;;;5.35;1.38;;;20.80;88.60;;;;;;5049743;28;20035;-67
2022/03/14 06:38:15;;;;;;;10.48;2.15;;;20.80;87.40;;;;;;5068402;28;20064;-67
2022/03/14 06:40:43;;;;;;;8.13;1.80;;;20.80;87.50;;;;;;5060030;28;20581;-67
2022/03/14 06:43:21;;;;;;;6.18;2.25;;;20.80;86.90;;;;;;5067740;28;20116;-67
2022/03/14 06:45:49;;;;;;;6.88;1.55;;;20.90;88.20;;;;;;5063308;28;20478;-67
2022/03/14 06:48:16;;;;;;;9.18;1.70;;;20.80;87.60;;;;;;5048445;28;20103;-67
2022/03/14 06:50:44;;;;;;;5.30;1.50;;;20.80;87.90;;;;;;5063220;28;20045;-66
2022/03/14 06:53:11;;;;;;;9.70;1.77;;;20.80;86.80;;;;;;5047768;28;20032;-66
2022/03/14 06:55:38;;;;;;;9.13;1.50;;;20.80;85.70;;;;;;5068014;28;20060;-66
2022/03/14 06:58:05;;;;;;;7.78;1.60;;;20.80;87.20;;;;;;5072222;28;20512;-66
2022/03/14 07:00:33;;;;;;;7.45;1.88;;;20.90;88.00;;;;;;5069110;28;20063;-66
2022/03/14 07:03:00;;;;;;;10.13;2.03;;;20.90;89.10;;;;;;5029756;28;20036;-67
2022/03/14 07:05:27;;;;;;;8.02;1.80;;;20.90;88.50;;;;;;5051557;28;20033;-66
2022/03/14 07:07:54;;;;;;;6.22;1.75;;;20.90;88.60;;;;;;5065499;28;20033;-66
2022/03/14 07:10:22;;;;;;;5.38;1.60;;;21.00;89.20;;;;;;5066522;28;20032;-66
2022/03/14 07:12:50;;;;;;;7.38;1.63;;;21.00;89.40;;;;;;5052585;28;20408;-66
2022/03/14 07:15:21;;;;;;;7.43;2.05;;;21.00;89.60;;;;;;5043397;28;20044;-66
2022/03/14 07:17:49;;;;;;;5.43;1.67;;;21.00;90.00;;;;;;5043878;28;20479;-66
2022/03/14 07:20:19;;;;;;;9.27;1.65;;;21.00;89.50;;;;;;5055957;28;20110;-66
2022/03/14 07:22:55;;;;;;;;;;;21.00;89.30;;;;;;5060378;28;20052;-66
2022/03/14 07:25:27;;;;;;;6.00;1.52;;;20.90;88.00;;;;;;5057485;28;19916;-67
2022/03/14 07:27:56;;;;;;;8.70;1.98;;;20.90;89.00;;;;;;5039225;28;20052;-67
2022/03/14 07:30:23;;;;;;;9.70;2.00;;;21.00;89.50;;;;;;5073445;28;20040;-67
2022/03/14 07:32:51;;;;;;;5.90;1.90;;;21.00;90.20;;;;;;5051701;28;20036;-65
2022/03/14 07:35:18;;;;;;;10.55;1.83;;;21.00;90.70;;;;;;5067044;28;20048;-67
2022/03/14 07:37:45;;;;;;;6.60;1.52;;;21.00;90.30;;;;;;5037512;28;20116;-70
2022/03/14 07:40:14;;;;;;;6.22;1.50;;;20.90;89.20;;;;;;5064852;28;20154;-71
2022/03/14 07:42:44;;;;;;;6.45;1.73;;;20.90;89.60;;;;;;5038268;28;20037;-65
2022/03/14 07:45:13;;;;;;;7.03;1.52;;;20.80;87.00;;;;;;5066343;28;20518;-66
2022/03/14 07:47:40;;;;;;;5.80;1.60;;;20.80;87.40;;;;;;5050607;28;20032;-66
2022/03/14 07:50:09;;;;;;;6.03;1.52;;;20.90;88.30;;;;;;5066964;28;20044;-66
2022/03/14 07:52:36;;;;;;;8.60;1.75;;;20.80;86.40;;;;;;5070340;28;20371;-66
2022/03/14 07:55:09;;;;;;;5.70;1.55;;;20.80;84.90;;;;;;5052552;28;20123;-66
2022/03/14 07:57:37;;;;;;;7.60;1.48;;;20.80;85.00;;;;;;5046731;28;20128;-67
2022/03/14 08:00:08;;;;;;;9.35;1.98;;;20.80;85.10;;;;;;5064499;28;20033;-65
2022/03/14 08:02:35;;;;;;;7.68;2.35;;;20.80;84.00;;;;;;5067045;28;20086;-64
2022/03/14 08:05:02;;;;;;;6.28;1.65;;;20.80;84.30;;;;;;5072773;28;20032;-64
2022/03/14 08:07:29;;;;;;;8.05;1.63;;;20.80;85.10;;;;;;5043305;28;20033;-64
2022/03/14 08:09:56;;;;;;;6.22;1.90;;;20.80;83.40;;;;;;5066929;28;20083;-65
2022/03/14 08:12:24;;;;;;;7.30;1.65;;;20.80;83.90;;;;;;5062687;28;20045;-66
2022/03/14 08:14:51;;;;;;;9.50;1.92;;;20.80;84.70;;;;;;5051115;28;20024;-64
2022/03/14 08:17:18;;;;;;;5.50;1.77;;;20.80;84.50;;;;;;5070861;28;20032;-66
2022/03/14 08:19:46;;;;;;;5.32;1.55;;;20.80;84.80;;;;;;5064030;28;20499;-65
2022/03/14 08:22:13;;;;;;;6.93;1.90;;;20.80;84.60;;;;;;5058152;28;20037;-66
2022/03/14 08:24:40;;;;;;;8.43;1.60;;;20.80;83.90;;;;;;5062966;28;20099;-66
2022/03/14 08:27:08;;;;;;;4.63;1.73;;;20.80;83.90;;;;;;5056288;28;20044;-66
2022/03/14 08:29:35;;;;;;;7.45;2.17;;;20.80;85.10;;;;;;5059474;28;20432;-65
2022/03/14 08:32:02;;;;;;;3.55;1.48;;;20.80;84.40;;;;;;5063362;28;20029;-65
2022/03/14 08:34:30;;;;;;;13.60;2.45;;;20.80;85.10;;;;;;5063781;28;20033;-65
2022/03/14 08:36:57;;;;;;;8.23;1.63;;;20.80;85.80;;;;;;5051747;28;20052;-65
2022/03/14 08:39:26;;;;;;;5.63;1.90;;;20.80;86.00;;;;;;5051214;28;20059;-65
2022/03/14 08:41:53;;;;;;;5.85;1.98;;;20.70;85.90;;;;;;5065808;28;20032;-65
2022/03/14 08:44:20;;;;;;;7.45;2.10;;;20.70;86.20;;;;;;5065459;28;20033;-65
2022/03/14 08:46:47;;;;;;;8.05;1.90;;;20.70;85.60;;;;;;5058562;28;20024;-65
2022/03/14 08:49:14;;;;;;;5.05;2.00;;;20.70;85.60;;;;;;5060569;28;20048;-65
2022/03/14 08:51:42;;;;;;;5.35;2.10;;;20.70;86.20;;;;;;5064837;28;20431;-65
2022/03/14 08:54:09;;;;;;;10.13;2.53;;;20.70;85.60;;;;;;5066342;28;20040;-66
2022/03/14 08:56:37;;;;;;;6.35;2.25;;;20.60;85.30;;;;;;5069164;28;20028;-67
2022/03/14 08:59:05;;;;;;;8.88;2.55;;;20.70;85.70;;;;;;5063967;28;20117;-63
2022/03/14 09:01:33;;;;;;;7.93;2.28;;;20.70;84.60;;;;;;5060471;28;20035;-63
2022/03/14 09:04:00;;;;;;;5.07;1.80;;;20.70;84.70;;;;;;5055615;28;20475;-63
2022/03/14 09:06:28;;;;;;;6.22;1.85;;;20.70;84.70;;;;;;5060230;28;20044;-62
2022/03/14 09:08:55;;;;;;;8.38;2.47;;;20.70;84.70;;;;;;5069757;28;20161;-63
2022/03/14 09:11:24;;;;;;;6.68;2.50;;;20.70;85.90;;;;;;5069348;28;20086;-64
2022/03/14 09:13:51;;;;;;;10.73;2.33;;;20.70;86.30;;;;;;5068156;28;20399;-64
2022/03/14 09:16:19;;;;;;;22.88;2.80;;;20.70;85.70;;;;;;5064391;28;20029;-63
2022/03/14 09:18:47;;;;;;;10.77;2.63;;;20.70;86.40;;;;;;5048465;28;20041;-63
2022/03/14 09:21:14;;;;;;;10.40;2.35;;;20.60;85.50;;;;;;5063799;28;20075;-64
2022/03/14 09:23:42;;;;;;;9.65;2.53;;;20.70;85.60;;;;;;5047082;28;20032;-64
2022/03/14 09:26:10;;;;;;;8.48;2.38;;;20.60;84.60;;;;;;5062087;28;20045;-64
2022/03/14 09:28:44;;;;;;;8.77;2.28;;;20.60;84.00;;;;;;5066086;28;20112;-64
2022/03/14 09:31:17;;;;;;;7.00;2.25;;;20.60;84.80;;;;;;5059307;28;20490;-64
2022/03/14 09:33:44;;;;;;;6.40;2.20;;;20.60;85.60;;;;;;5061065;28;20041;-64
2022/03/14 09:36:11;;;;;;;10.48;2.05;;;20.60;85.90;;;;;;5059355;28;20430;-64
2022/03/14 09:38:38;;;;;;;9.90;2.38;;;20.50;85.50;;;;;;5062469;28;20044;-64
2022/03/14 09:41:06;;;;;;;8.77;2.28;;;20.60;84.60;;;;;;5062070;28;20094;-64
2022/03/14 09:43:37;;;;;;;6.80;1.90;;;20.50;85.10;;;;;;5053382;28;20132;-63
2022/03/14 09:46:05;;;;;;;9.43;2.03;;;20.60;84.60;;;;;;5046969;28;20045;-64
2022/03/14 09:48:36;;;;;;;7.65;1.98;;;20.60;85.10;;;;;;5051291;28;20032;-63
2022/03/14 09:51:04;;;;;;;7.25;2.15;;;20.60;85.10;;;;;;5052402;28;20544;-63
2022/03/14 09:53:31;;;;;;;9.38;1.70;;;20.50;83.80;;;;;;5070094;28;20401;-63
2022/03/14 09:55:59;;;;;;;6.70;2.25;;;20.50;83.20;;;;;;5051092;28;20028;-64
2022/03/14 09:58:26;;;;;;;6.43;1.80;;;20.60;84.50;;;;;;5062141;28;20040;-65
2022/03/14 10:00:57;;;;;;;8.05;2.08;;;20.60;84.40;;;;;;5058416;28;20032;-65
2022/03/14 10:03:24;;;;;;;10.25;2.38;;;20.60;83.90;;;;;;5061777;28;20029;-64
2022/03/14 10:05:52;;;;;;;12.02;2.20;;;20.60;84.40;;;;;;5064827;28;20397;-66
2022/03/14 10:08:19;;;;;;;9.93;2.60;;;20.60;84.20;;;;;;5048951;28;20044;-65
2022/03/14 10:10:46;;;;;;;10.85;2.15;;;20.60;84.30;;;;;;5071807;28;20036;-66
2022/03/14 10:13:15;;;;;;;11.48;3.30;;;20.70;85.20;;;;;;5049888;28;20028;-64
2022/03/14 10:15:42;;;;;;;10.65;2.65;;;20.60;85.80;;;;;;5067526;28;20043;-62
2022/03/14 10:18:14;;;;;;;13.32;2.53;;;20.60;85.10;;;;;;5068085;28;20036;-64
2022/03/14 10:21:12;;;;;;;8.50;2.05;;;20.50;84.60;;;;;;5067931;28;20036;-64
2022/03/14 10:23:44;;;;;;;10.68;2.30;;;20.50;84.50;;;;;;5044761;28;20028;-64
2022/03/14 10:26:17;;;;;;;11.20;2.20;;;20.50;85.10;;;;;;5050476;28;20785;-63
2022/03/14 10:28:50;;;;;;;11.35;3.03;;;20.60;84.80;;;;;;5070888;28;20062;-64
2022/03/14 10:31:29;;;;;;;5.03;1.90;;;20.50;84.10;;;;;;5071224;28;20368;-63
2022/03/14 10:34:08;;;;;;;10.15;2.00;;;20.50;82.20;;;;;;5070542;28;20033;-63
2022/03/14 10:36:40;;;;;;;8.07;1.70;;;20.60;82.40;;;;;;5071501;28;20035;-64
2022/03/14 10:39:17;;;;;;;5.43;1.80;;;20.60;83.40;;;;;;5049463;28;20143;-63
2022/03/14 10:41:49;;;;;;;4.90;1.88;;;20.60;84.10;;;;;;5063209;28;20064;-64
2022/03/14 11:42:00;;;;;;;8.93;1.75;;;20.60;84.00;;;;;;5050389;28;20132;-65
2022/03/14 11:44:28;;;;;;;11.30;1.60;;;20.60;83.20;;;;;;5071430;28;20060;-65
2022/03/14 11:46:55;;;;;;;10.65;2.25;;;20.70;84.00;;;;;;5072949;28;20398;-64
2022/03/14 11:49:32;;;;;;;7.70;2.30;;;20.70;83.80;;;;;;5062277;28;20120;-64
2022/03/14 11:52:18;;;;;;;7.32;1.70;;;20.70;84.20;;;;;;5047438;28;20055;-64
2022/03/14 11:54:53;;;;;;;10.45;1.60;;;20.70;84.70;;;;;;5042816;28;20036;-65
2022/03/14 11:57:41;;;;;;;8.68;2.13;;;20.70;84.50;;;;;;5051521;28;20044;-64
2022/03/14 12:00:32;;;;;;;6.82;1.50;;;20.70;84.50;;;;;;5067349;28;20458;-65
2022/03/14 12:03:05;;;;;;;6.75;1.50;;;20.70;84.40;;;;;;5071376;28;20048;-63
2022/03/14 12:05:32;;;;;;;7.80;1.58;;;20.70;82.80;;;;;;5072204;28;20036;-63
2022/03/14 12:07:59;;;;;;;10.10;2.17;;;20.70;83.70;;;;;;5071141;28;20036;-64
2022/03/14 12:10:31;;;;;;;9.48;1.70;;;20.70;83.40;;;;;;5050812;28;20024;-64
2022/03/14 12:13:04;;;;;;;6.25;1.80;;;20.70;83.20;;;;;;5069464;28;20052;-63
2022/03/14 12:15:44;;;;;;;10.50;1.88;;;20.70;82.90;;;;;;5065910;28;20035;-64
2022/03/14 12:18:27;;;;;;;9.18;1.90;;;20.80;83.30;;;;;;5049296;28;20047;-63
2022/03/14 12:20:56;;;;;;;6.00;1.50;;;20.80;82.80;;;;;;5063286;28;20098;-64
2022/03/14 12:23:31;;;;;;;10.20;2.08;;;20.80;83.10;;;;;;5053110;28;20024;-64
2022/03/14 12:26:02;;;;;;;11.25;1.83;;;20.80;83.50;;;;;;5066336;28;20024;-63
2022/03/14 12:28:32;;;;;;;11.50;1.80;;;20.70;83.00;;;;;;5070074;28;20037;-64
2022/03/14 12:31:03;;;;;;;8.82;1.80;;;20.80;83.90;;;;;;5069412;28;21366;-64
2022/03/14 12:33:35;;;;;;;7.53;1.83;;;20.70;83.10;;;;;;5067342;28;20032;-63
2022/03/14 12:36:22;;;;;;;9.02;1.60;;;20.70;82.80;;;;;;5067140;28;20040;-64
2022/03/14 12:39:12;;;;;;;5.65;1.52;;;20.60;81.80;;;;;;5062255;28;20032;-63
2022/03/14 12:41:43;;;;;;;10.68;1.95;;;20.70;81.70;;;;;;5069402;28;20033;-64
2022/03/14 12:44:27;;;;;;;9.15;1.80;;;20.70;81.40;;;;;;5069917;28;20048;-63
2022/03/14 12:46:56;;;;;;;8.48;2.10;;;20.70;82.20;;;;;;5075340;28;20129;-64
2022/03/14 12:49:39;;;;;;;8.40;1.80;;;20.70;83.00;;;;;;5045849;28;20108;-64
2022/03/14 12:52:11;;;;;;;7.30;2.10;;;20.70;82.60;;;;;;5066652;28;20522;-64
2022/03/14 12:54:38;;;;;;;12.48;2.25;;;20.70;83.10;;;;;;5045191;28;20400;-63
2022/03/14 12:57:07;;;;;;;7.07;1.90;;;20.70;82.90;;;;;;5069967;28;20036;-63
2022/03/14 12:59:41;;;;;;;9.05;2.28;;;20.60;82.10;;;;;;5065341;28;20513;-64
2022/03/14 13:02:25;;;;;;;9.57;1.58;;;20.60;82.90;;;;;;5069575;28;20793;-63
2022/03/14 13:04:59;;;;;;;11.65;2.40;;;20.60;82.20;;;;;;5069148;28;20040;-64
2022/03/14 13:07:35;;;;;;;9.07;2.10;;;20.60;81.60;;;;;;5066645;28;20033;-64
2022/03/14 13:10:02;;;;;;;8.75;1.75;;;20.60;82.20;;;;;;5069686;28;20082;-64
2022/03/14 13:12:30;;;;;;;5.32;1.73;;;20.60;82.50;;;;;;5069074;28;20035;-63
2022/03/14 13:15:08;;;;;;;10.55;1.80;;;20.50;81.60;;;;;;5051508;28;20097;-64
2022/03/14 13:17:35;;;;;;;6.70;1.58;;;20.50;82.70;;;;;;5036464;28;20033;-63
2022/03/14 13:20:29;;;;;;;9.25;2.30;;;20.60;82.30;;;;;;5047917;28;20048;-64
2022/03/14 13:22:58;;;;;;;8.60;1.50;;;20.50;81.40;;;;;;5059031;28;20082;-64
2022/03/14 13:25:32;;;;;;;8.95;1.60;;;20.60;81.80;;;;;;5069803;28;20089;-63
2022/03/14 13:27:59;;;;;;;6.65;1.40;;;20.60;82.60;;;;;;5046150;28;20132;-63
2022/03/14 13:30:46;;;;;;;8.60;1.60;;;20.50;82.00;;;;;;5036472;28;20453;-64
2022/03/14 13:33:27;;;;;;;5.40;1.98;;;20.60;82.20;;;;;;5070216;28;20044;-64
2022/03/14 13:36:01;;;;;;;9.10;1.90;;;20.50;83.20;;;;;;5069931;28;20115;-64
2022/03/14 13:38:38;;;;;;;6.93;1.52;;;20.50;83.40;;;;;;5069137;28;20052;-64
2022/03/14 13:41:06;;;;;;;8.07;1.65;;;20.50;81.80;;;;;;5049539;28;20036;-64
2022/03/14 13:43:33;;;;;;;6.47;1.70;;;20.50;82.00;;;;;;5069733;28;20036;-63
2022/03/14 13:46:32;;;;;;;7.63;1.55;;;20.50;81.90;;;;;;5050082;28;20065;-63
2022/03/14 13:49:03;;;;;;;8.57;1.80;;;20.50;82.10;;;;;;5058639;28;20036;-64
2022/03/14 13:51:37;;;;;;;9.98;2.17;;;20.40;80.90;;;;;;5065369;28;20573;-64
2022/03/14 13:54:18;;;;;;;6.47;1.50;;;20.50;80.90;;;;;;5069778;28;20047;-63